• Join FlightAware (Why Join?)
  • Login
  • US Flag 
03:03AM EST


 

Airport Tracker/Info


-or-


 

Live Flight TrackerFlight Track Log ✈ JIA2335 ✈ 30-Apr-2013 ✈ KPHL - KDAY

Flight Track Log - Related Links

Times and Time Zones

All times are in EDT time to prevent confusion due to time zone crossing. See the JIA2335 flight status page for this flight to view local times or setup timezone preferences in your user account.

Time Position Orientation Groundspeed Altitude Reporting Facility
EDT Latitude Longitude Course Direction KTS MPH feet Rate Location/Type
09:32AM 39.8833 -75.2167 270° West 157 181 800  Level Philadelphia TRACON
09:33AM 39.9000 -75.1333 75° East 207 238 4,100 2,591 Climbing Philadelphia TRACON
09:34AM 39.9167 -75.0667 72° East 236 272 6,500 1,611 Climbing Philadelphia TRACON
09:35AM 39.9132 -75.6876 258° West  Level FlightAware Approximate
09:35AM 39.9833 -75.0667 360° North 251 289 7,000  Level Philadelphia TRACON
09:36AM 39.9000 -75.8045 270° West  Level FlightAware Approximate
09:36AM 40.0167 -75.1333 303° West 260 299 7,000  Level Philadelphia TRACON
09:37AM 39.9000 -75.9232 270° West  Level FlightAware Approximate
09:37AM 40.0000 -75.2500 259° West 289 333 9,400  Level Philadelphia TRACON
09:39AM 39.9594 -75.4697 257° West 325 374 10,400 600 Climbing New York Center
09:40AM 39.9364 -75.5736 254° West 331 381 11,200 942 Climbing New York Center
09:41AM 39.9183 -75.7131 260° West 349 402 12,300 1,333 Climbing New York Center
09:42AM 39.9233 -75.8353 273° West 370 426 13,800 1,678 Climbing New York Center
09:43AM 39.9317 -75.9850 274° West 381 438 15,600 1,636 Climbing New York Center
09:44AM 39.9358 -76.1233 272° West 386 444 17,100 1,388 Climbing New York Center
09:45AM 39.9419 -76.2592 273° West 386 444 18,400 1,377 Climbing New York Center
09:46AM 39.9425 -76.3811 270° West 386 444 19,900 1,550 Climbing New York Center
09:47AM 39.9508 -76.5144 275° West 381 438 21,500 1,600 Climbing New York Center
09:48AM 39.9528 -76.6419 271° West 376 433 23,100 1,488 Climbing New York Center
09:49AM 39.9567 -76.7694 272° West 364 419 24,500 1,231 Climbing New York Center
09:50AM 39.9625 -76.9000 273° West 364 419 25,500 1,017 Climbing New York Center
09:51AM 39.9661 -77.0306 272° West 364 419 26,500 984 Climbing New York Center
09:52AM 39.9697 -77.1581 272° West 364 419 27,500 1,000 Climbing New York Center
09:53AM 39.9728 -77.2911 272° West 369 425 28,500 1,008 Climbing New York Center
09:54AM 39.9761 -77.4189 272° West 369 425 29,500 520 Climbing New York Center
09:56AM 39.9864 -77.6811 273° West 362 417 30,000 173 Climbing Cleveland Center
09:57AM 39.9897 -77.8108 272° West 362 417 30,000  Level Cleveland Center
09:58AM 39.9925 -77.9356 272° West 362 417 30,000  Level Cleveland Center
09:59AM 39.9956 -78.0656 272° West 362 417 30,000  Level Cleveland Center
10:00AM 39.9983 -78.1900 272° West 362 417 30,000  Level Cleveland Center
10:01AM 39.9964 -78.3067 269° West 362 417 30,000  Level Cleveland Center
10:02AM 39.9989 -78.4311 272° West 362 417 30,000  Level Cleveland Center
10:03AM 40.0011 -78.5558 271° West 356 410 30,000  Level Cleveland Center
10:04AM 40.0097 -78.6831 275° West 351 404 30,000  Level Cleveland Center
10:05AM 40.0158 -78.8047 274° West 346 398 30,000  Level Cleveland Center
10:06AM 40.0219 -78.9294 274° West 346 398 30,000  Level Cleveland Center
10:07AM 40.0319 -79.0539 276° West 346 398 30,000  Level Cleveland Center
10:08AM 40.0378 -79.1811 273° West 346 398 30,000  Level Cleveland Center
10:09AM 40.0433 -79.3031 273° West 346 398 30,000  Level Cleveland Center
10:10AM 40.0511 -79.4414 274° West 346 398 30,000  Level Cleveland Center
10:11AM 40.0564 -79.5658 273° West 346 398 30,000  Level Cleveland Center
10:12AM 40.0617 -79.6906 273° West 346 398 30,000  Level Cleveland Center
10:13AM 40.0667 -79.8181 273° West 346 398 30,000  Level Cleveland Center
10:14AM 40.0736 -79.9483 274° West 346 398 30,000  Level Cleveland Center
10:15AM 40.0786 -80.0731 273° West 351 404 30,000  Level Cleveland Center
10:16AM 40.0833 -80.2006 273° West 351 404 30,000  Level Cleveland Center
10:17AM 40.0897 -80.3308 274° West 352 405 30,000  Level Cleveland Center
10:18AM 40.0942 -80.4556 273° West 352 405 30,000  Level Cleveland Center
10:19AM 40.0983 -80.5858 272° West 352 405 30,000  Level Cleveland Center
10:20AM 40.1025 -80.7133 272° West 352 405 30,000  Level Cleveland Center
10:21AM 40.1064 -80.8436 272° West 357 411 30,000  Level Cleveland Center
10:22AM 40.1122 -80.9711 273° West 357 411 30,000 -439 Level Cleveland Center
10:24AM 40.1167 -81.2025 272° West 374 430 28,800 -687 Descending Indianapolis Center
10:25AM 40.1206 -81.3472 272° West 390 449 28,100 -387 Descending Indianapolis Center
10:26AM 40.1256 -81.4933 273° West 398 458 28,000 -48 Descending Indianapolis Center
10:27AM 40.1300 -81.6372 272° West 392 451 28,000 -242 Level Indianapolis Center
10:28AM 40.1331 -81.7808 272° West 388 447 27,500 -823 Descending Indianapolis Center
10:29AM 40.1381 -81.9231 273° West 388 447 26,300 -1,161 Descending Indianapolis Center
10:30AM 40.1417 -82.0653 272° West 389 448 25,100 -629 Descending Indianapolis Center
10:31AM 40.1447 -82.2014 272° West 378 435 25,000 -242 Descending Indianapolis Center
10:32AM 40.1478 -82.3589 272° West 370 426 24,600 -484 Descending Indianapolis Center
10:33AM 40.1508 -82.4947 272° West 372 428 24,000 -629 Descending Indianapolis Center
10:34AM 40.1544 -82.6306 272° West 372 428 23,300 -968 Descending Indianapolis Center
10:35AM 40.1611 -82.7603 274° West 361 415 22,000 -1,452 Descending Indianapolis Center
10:36AM 40.1669 -82.8844 274° West 343 395 20,300 -1,645 Descending Indianapolis Center
10:37AM 40.1733 -83.0086 274° West 341 392 18,600 -1,597 Descending Indianapolis Center
10:38AM 40.1800 -83.1328 274° West 341 392 17,000 -1,756 Descending Indianapolis Center
10:39AM 40.1872 -83.2753 274° West 336 387 15,000 -1,888 Descending Indianapolis Center
10:40AM 40.1886 -83.3356 272° West 333 383 14,200 -1,645 Descending Indianapolis Center
10:40AM 40.1925 -83.3956 275° West 331 381 13,300 -1,714 Descending Indianapolis Center
10:41AM 40.1972 -83.5086 273° West 307 353 11,600 -1,161 Descending Indianapolis Center
10:42AM 40.1647 -83.6058 246° West 291 335 10,900 -1,026 Descending Indianapolis Center
10:43AM 40.1275 -83.6908 240° Southwest 281 323 9,600 -1,759 Descending Indianapolis Center
10:44AM 40.0908 -83.7872 244° Southwest 277 319 7,500 -1,884 Descending Indianapolis Center
10:45AM 40.0781 -83.8728 259° West 268 308 5,800 -1,886 Descending Indianapolis Center
10:45AM 40.0767 -83.8964 266° West 271 312 5,300 -1,403 Descending Indianapolis Center
10:46AM 40.0744 -83.9883 268° West 260 299 4,000 -729 Descending Indianapolis Center
10:47AM 40.1119 -84.0328 318° Northwest 217 250 4,000 -98 Level Indianapolis Center
10:47AM 40.1219 -84.0431 322° Northwest 231 266 3,900  Descending Indianapolis Center
10:48AM 40.1372 -84.0853 295° West 193 222 4,000  Climbing Indianapolis Center
10:48AM 40.1375 -84.1069 271° West 208 239 3,900  Descending Indianapolis Center
10:49AM 40.1336 -84.1583 264° West 198 228 4,000  Climbing Indianapolis Center
10:49AM 40.1347 -84.1789 274° West 201 231 3,900  Descending Indianapolis Center
10:50AM 40.1103 -84.2181 231° Southwest 197 227 4,000 167 Climbing Indianapolis Center